KFCM/FCM METAR and TAF weather

Enter ICAO airport designator
Station Type Date Time Source
KFCM METAR 2021/10/24 20:53 UTC NOAA

KFCM 242053Z 06013G20KT 10SM OVC095 09/M01 A2991 RMK AO2 SLP133 T00891006 56018


Station Type Date Time Source
KFCM Decoded METAR 2021/10/24 20:53 UTC NOAA

Minneapolis, Flying Cloud Airport, MN, United States (KFCM) 44-49-56N 093-28-13W 280M
Oct 24, 2021 - 04:53 PM EDT / 2021.10.24 2053 UTC
Wind: from the ENE (060 degrees) at 15 MPH (13 KT) gusting to 23 MPH (20 KT):0
Visibility: 10 mile(s):0
Sky conditions: overcast
Temperature: 48.0 F (8.9 C)
Dew Point: 30.9 F (-0.6 C)
Relative Humidity: 51%
Pressure (altimeter): 29.91 in. Hg (1012 hPa)
Pressure tendency: 0.05 inches (1.8 hPa) lower than three hours ago
ob: KFCM 242053Z 06013G20KT 10SM OVC095 09/M01 A2991 RMK AO2 SLP133 T00891006 56018
cycle: 21

Station Type Date Time Source
KFCM TAF 2018/02/05 20:59 UTC NOAA

TAF
AMD KFCM 051959Z 0520/0618 27007KT 6SM -SHSN BKN020 OVC050
TEMPO 0520/0522 SCT020 BKN050
FM052200 27007KT P6SM FEW020 BKN100
FM060100 31007KT P6SM FEW200
FM061000 VRB03KT P6SM FEW250
AMD NOT SKED

Example: see airport list